createdAt,value
2022-08-29T00:03:20.014Z,987.6
2022-08-29T00:17:46.669Z,987.5
2022-08-29T00:32:15.109Z,987.6
2022-08-29T00:46:48.714Z,987.5
2022-08-29T01:01:16.691Z,987.5
2022-08-29T01:15:40.854Z,987.6
2022-08-29T01:30:08.670Z,987.6
2022-08-29T01:44:35.995Z,987.6
2022-08-29T01:59:04.438Z,987.7
2022-08-29T02:13:32.419Z,987.8
2022-08-29T02:27:59.880Z,987.8
2022-08-29T02:42:30.840Z,987.8
2022-08-29T02:57:00.446Z,987.8
2022-08-29T03:11:21.243Z,987.7
2022-08-29T03:25:49.677Z,987.7
2022-08-29T03:40:17.603Z,987.7
2022-08-29T03:54:44.979Z,987.7
2022-08-29T04:09:13.570Z,987.6
2022-08-29T04:23:48.431Z,987.7
2022-08-29T04:38:17.755Z,987.7
2022-08-29T04:52:40.880Z,987.8
2022-08-29T05:07:09.055Z,987.8
2022-08-29T05:21:38.360Z,987.8
2022-08-29T05:36:05.055Z,987.9
2022-08-29T05:50:33.678Z,988
2022-08-29T06:05:01.525Z,988
2022-08-29T06:19:34.492Z,988.1
2022-08-29T06:34:05.036Z,988.2
2022-08-29T06:48:30.113Z,988.3
2022-08-29T07:03:00.401Z,988.3
2022-08-29T07:17:35.889Z,988.3
2022-08-29T07:32:05.666Z,988.3
2022-08-29T07:46:35.367Z,988.4
2022-08-29T08:01:22.272Z,988.4
2022-08-29T08:15:49.290Z,988.4
2022-08-29T08:30:20.377Z,988.5
2022-08-29T08:44:43.116Z,988.4
2022-08-29T08:59:18.856Z,988.4
2022-08-29T09:13:45.677Z,988.4
2022-08-29T09:28:13.815Z,988.5
2022-08-29T09:42:37.199Z,988.4
2022-08-29T09:57:03.364Z,988.3
2022-08-29T10:11:32.972Z,988.3
2022-08-29T10:26:00.790Z,988.2
2022-08-29T10:40:31.029Z,988.2
2022-08-29T10:54:58.709Z,988.1
2022-08-29T11:09:24.494Z,988
2022-08-29T11:23:52.095Z,987.8
2022-08-29T11:38:22.628Z,987.6
2022-08-29T11:52:51.697Z,987.5
2022-08-29T12:07:18.552Z,987.5
2022-08-29T12:21:44.513Z,987.4
2022-08-29T12:36:19.174Z,987.2
2022-08-29T12:50:49.036Z,987.1
2022-08-29T13:05:12.071Z,987
2022-08-29T13:19:39.258Z,986.9
2022-08-29T13:34:05.934Z,986.8
2022-08-29T13:48:31.766Z,986.7
2022-08-29T14:03:00.894Z,986.6
2022-08-29T14:17:27.976Z,986.4
2022-08-29T14:31:52.877Z,986.5
2022-08-29T14:46:25.952Z,986.4
2022-08-29T15:00:55.252Z,986.3
2022-08-29T15:15:17.258Z,986.2
2022-08-29T15:29:44.564Z,986.2
2022-08-29T15:44:12.826Z,985.9
2022-08-29T15:58:40.807Z,986
2022-08-29T16:13:08.196Z,985.8
2022-08-29T16:27:35.526Z,985.8
2022-08-29T16:42:03.324Z,985.9
2022-08-29T16:56:35.396Z,985.9
2022-08-29T17:10:59.392Z,986
2022-08-29T17:25:30.665Z,985.9
2022-08-29T17:39:55.529Z,985.8
2022-08-29T17:54:22.956Z,986
2022-08-29T18:08:49.135Z,986
2022-08-29T18:23:17.093Z,986.1
2022-08-29T18:37:43.045Z,986
2022-08-29T18:52:08.716Z,986.2
2022-08-29T19:06:36.145Z,986.3
2022-08-29T19:21:02.151Z,986.4
2022-08-29T19:35:29.401Z,986.4
2022-08-29T19:49:56.230Z,986.4
2022-08-29T20:04:22.967Z,986.4
2022-08-29T20:18:51.890Z,986.3
2022-08-29T20:33:25.258Z,986.3
2022-08-29T20:47:54.060Z,986.5
2022-08-29T21:02:31.559Z,986.6
2022-08-29T21:16:50.538Z,986.7
2022-08-29T21:31:17.617Z,986.7
2022-08-29T21:45:42.475Z,986.6
2022-08-29T22:00:08.954Z,986.7
2022-08-29T22:14:42.377Z,986.6
2022-08-29T22:29:12.282Z,986.8
2022-08-29T22:43:33.572Z,986.9
2022-08-29T22:58:08.089Z,986.8
2022-08-29T23:12:37.899Z,986.8
2022-08-29T23:27:02.197Z,986.8
2022-08-29T23:41:29.585Z,986.7
2022-08-29T23:55:56.924Z,986.7
